Gattman, Mississippi
Current Conditions -  °F | °C
As of 9:55 AM on Thursday 23 Oct 2014 (Local Time) from KM40 Reporting Station
Clear Clear  
Wind Chill: 11°   Ceiling: Unl
Heat Index: 11°   Visibility: 8mi
Dew Point:   Wind: 3mph
Humidity: 54%   Direction: 330°NNW
Pressure: 30.21"   Gusts: NA
Location:  33.89°N, 88.24°W
Report Text: KM40 231455Z AUTO 33003KT 8SM CLR 11/02 A3021 RMK AO2
Loading
Personal Weather Stations






























Interactive Weather Map
Tropical Storm Tracking
New forecast layout! Learn more

10-Day Weather Forecast

Advertisements
Track Severe Weather on mobile